sensor_id;sensor_type;location;lat;lon;timestamp;P1;durP1;ratioP1;P2;durP2;ratioP2
7171;SDS011;3627;46.544;14.944;2024-01-10T00:02:12;2.20;;;2.10;;
7171;SDS011;3627;46.544;14.944;2024-01-10T00:04:38;1.80;;;1.70;;
7171;SDS011;3627;46.544;14.944;2024-01-10T00:07:05;1.80;;;1.70;;
7171;SDS011;3627;46.544;14.944;2024-01-10T00:09:31;1.90;;;1.80;;
7171;SDS011;3627;46.544;14.944;2024-01-10T00:11:59;1.77;;;1.70;;
7171;SDS011;3627;46.544;14.944;2024-01-10T00:14:25;1.83;;;1.73;;
7171;SDS011;3627;46.544;14.944;2024-01-10T00:16:51;1.80;;;1.70;;
7171;SDS011;3627;46.544;14.944;2024-01-10T00:19:18;1.90;;;1.80;;
7171;SDS011;3627;46.544;14.944;2024-01-10T00:21:44;1.80;;;1.70;;
7171;SDS011;3627;46.544;14.944;2024-01-10T00:24:11;1.63;;;1.63;;
7171;SDS011;3627;46.544;14.944;2024-01-10T00:26:37;1.80;;;1.70;;
7171;SDS011;3627;46.544;14.944;2024-01-10T00:29:05;1.90;;;1.80;;
7171;SDS011;3627;46.544;14.944;2024-01-10T00:31:31;1.70;;;1.60;;
7171;SDS011;3627;46.544;14.944;2024-01-10T00:33:57;2.00;;;1.90;;
7171;SDS011;3627;46.544;14.944;2024-01-10T00:36:24;2.00;;;1.90;;
7171;SDS011;3627;46.544;14.944;2024-01-10T00:38:50;1.97;;;1.87;;
7171;SDS011;3627;46.544;14.944;2024-01-10T00:41:16;1.90;;;1.80;;
7171;SDS011;3627;46.544;14.944;2024-01-10T00:43:43;1.73;;;1.73;;
7171;SDS011;3627;46.544;14.944;2024-01-10T00:46:11;1.80;;;1.70;;
7171;SDS011;3627;46.544;14.944;2024-01-10T00:48:37;1.80;;;1.70;;
7171;SDS011;3627;46.544;14.944;2024-01-10T00:51:03;1.80;;;1.70;;
7171;SDS011;3627;46.544;14.944;2024-01-10T00:53:33;1.80;;;1.70;;
7171;SDS011;3627;46.544;14.944;2024-01-10T00:55:59;1.87;;;1.77;;
7171;SDS011;3627;46.544;14.944;2024-01-10T00:58:26;1.90;;;1.80;;
7171;SDS011;3627;46.544;14.944;2024-01-10T01:00:52;1.83;;;1.73;;
7171;SDS011;3627;46.544;14.944;2024-01-10T01:03:20;1.80;;;1.70;;
7171;SDS011;3627;46.544;14.944;2024-01-10T01:05:46;1.80;;;1.70;;
7171;SDS011;3627;46.544;14.944;2024-01-10T01:08:13;1.90;;;1.80;;
7171;SDS011;3627;46.544;14.944;2024-01-10T01:10:39;1.90;;;1.80;;
7171;SDS011;3627;46.544;14.944;2024-01-10T01:13:05;1.80;;;1.70;;
7171;SDS011;3627;46.544;14.944;2024-01-10T01:15:32;1.80;;;1.70;;
7171;SDS011;3627;46.544;14.944;2024-01-10T01:17:58;1.80;;;1.70;;
7171;SDS011;3627;46.544;14.944;2024-01-10T01:20:26;1.93;;;1.83;;
7171;SDS011;3627;46.544;14.944;2024-01-10T01:22:52;1.90;;;1.80;;
7171;SDS011;3627;46.544;14.944;2024-01-10T01:25:19;1.80;;;1.70;;
7171;SDS011;3627;46.544;14.944;2024-01-10T01:27:45;1.90;;;1.80;;
7171;SDS011;3627;46.544;14.944;2024-01-10T01:30:11;1.80;;;1.70;;
7171;SDS011;3627;46.544;14.944;2024-01-10T01:32:38;1.90;;;1.80;;
7171;SDS011;3627;46.544;14.944;2024-01-10T01:35:05;1.80;;;1.70;;
7171;SDS011;3627;46.544;14.944;2024-01-10T01:37:32;1.83;;;1.73;;
7171;SDS011;3627;46.544;14.944;2024-01-10T01:39:59;2.00;;;1.90;;
7171;SDS011;3627;46.544;14.944;2024-01-10T01:42:25;2.00;;;1.90;;
7171;SDS011;3627;46.544;14.944;2024-01-10T01:44:51;1.80;;;1.70;;
7171;SDS011;3627;46.544;14.944;2024-01-10T01:47:18;1.90;;;1.80;;
7171;SDS011;3627;46.544;14.944;2024-01-10T01:49:45;1.90;;;1.80;;
7171;SDS011;3627;46.544;14.944;2024-01-10T01:52:11;1.83;;;1.73;;
7171;SDS011;3627;46.544;14.944;2024-01-10T01:54:39;1.93;;;1.83;;
7171;SDS011;3627;46.544;14.944;2024-01-10T01:57:06;1.90;;;1.80;;
7171;SDS011;3627;46.544;14.944;2024-01-10T01:59:32;2.00;;;1.90;;
7171;SDS011;3627;46.544;14.944;2024-01-10T02:01:59;1.87;;;1.77;;
7171;SDS011;3627;46.544;14.944;2024-01-10T02:04:27;1.90;;;1.80;;
7171;SDS011;3627;46.544;14.944;2024-01-10T02:06:54;1.80;;;1.70;;
7171;SDS011;3627;46.544;14.944;2024-01-10T02:09:20;2.00;;;1.90;;
7171;SDS011;3627;46.544;14.944;2024-01-10T02:11:48;1.83;;;1.73;;
7171;SDS011;3627;46.544;14.944;2024-01-10T02:14:15;1.90;;;1.80;;
7171;SDS011;3627;46.544;14.944;2024-01-10T02:16:41;1.90;;;1.80;;
7171;SDS011;3627;46.544;14.944;2024-01-10T02:19:18;1.90;;;1.80;;
7171;SDS011;3627;46.544;14.944;2024-01-10T02:21:44;1.80;;;1.70;;
7171;SDS011;3627;46.544;14.944;2024-01-10T02:24:10;1.97;;;1.87;;
7171;SDS011;3627;46.544;14.944;2024-01-10T02:26:38;1.87;;;1.77;;
7171;SDS011;3627;46.544;14.944;2024-01-10T02:29:05;1.90;;;1.80;;
7171;SDS011;3627;46.544;14.944;2024-01-10T02:31:31;2.00;;;1.90;;
7171;SDS011;3627;46.544;14.944;2024-01-10T02:33:57;1.97;;;1.87;;
7171;SDS011;3627;46.544;14.944;2024-01-10T02:36:24;1.90;;;1.80;;
7171;SDS011;3627;46.544;14.944;2024-01-10T02:38:50;1.90;;;1.80;;
7171;SDS011;3627;46.544;14.944;2024-01-10T02:41:17;1.90;;;1.80;;
7171;SDS011;3627;46.544;14.944;2024-01-10T02:43:45;1.90;;;1.80;;
7171;SDS011;3627;46.544;14.944;2024-01-10T02:46:11;1.90;;;1.80;;
7171;SDS011;3627;46.544;14.944;2024-01-10T02:48:37;1.90;;;1.80;;
7171;SDS011;3627;46.544;14.944;2024-01-10T02:51:04;1.87;;;1.77;;
7171;SDS011;3627;46.544;14.944;2024-01-10T02:53:30;1.80;;;1.70;;
7171;SDS011;3627;46.544;14.944;2024-01-10T02:55:57;1.90;;;1.80;;
7171;SDS011;3627;46.544;14.944;2024-01-10T02:58:23;1.90;;;1.80;;
7171;SDS011;3627;46.544;14.944;2024-01-10T03:00:51;1.80;;;1.70;;
7171;SDS011;3627;46.544;14.944;2024-01-10T03:03:18;2.00;;;1.90;;
7171;SDS011;3627;46.544;14.944;2024-01-10T03:05:44;1.87;;;1.77;;
7171;SDS011;3627;46.544;14.944;2024-01-10T03:08:10;1.90;;;1.80;;
7171;SDS011;3627;46.544;14.944;2024-01-10T03:10:37;1.90;;;1.80;;
7171;SDS011;3627;46.544;14.944;2024-01-10T03:13:03;1.90;;;1.80;;
7171;SDS011;3627;46.544;14.944;2024-01-10T03:15:30;1.90;;;1.80;;
7171;SDS011;3627;46.544;14.944;2024-01-10T03:17:58;1.90;;;1.80;;
7171;SDS011;3627;46.544;14.944;2024-01-10T03:20:24;1.90;;;1.80;;
7171;SDS011;3627;46.544;14.944;2024-01-10T03:22:51;1.90;;;1.80;;
7171;SDS011;3627;46.544;14.944;2024-01-10T03:25:17;1.90;;;1.80;;
7171;SDS011;3627;46.544;14.944;2024-01-10T03:27:43;2.00;;;1.90;;
7171;SDS011;3627;46.544;14.944;2024-01-10T03:30:10;1.90;;;1.80;;
7171;SDS011;3627;46.544;14.944;2024-01-10T03:32:36;1.93;;;1.83;;
7171;SDS011;3627;46.544;14.944;2024-01-10T03:35:05;1.90;;;1.80;;
7171;SDS011;3627;46.544;14.944;2024-01-10T03:37:31;2.00;;;1.90;;
7171;SDS011;3627;46.544;14.944;2024-01-10T03:39:58;1.90;;;1.80;;
7171;SDS011;3627;46.544;14.944;2024-01-10T03:42:24;1.90;;;1.80;;
7171;SDS011;3627;46.544;14.944;2024-01-10T03:44:51;1.80;;;1.70;;
7171;SDS011;3627;46.544;14.944;2024-01-10T03:47:17;1.90;;;1.80;;
7171;SDS011;3627;46.544;14.944;2024-01-10T03:49:44;1.90;;;1.80;;
7171;SDS011;3627;46.544;14.944;2024-01-10T03:52:11;1.90;;;1.80;;
7171;SDS011;3627;46.544;14.944;2024-01-10T03:54:38;2.10;;;2.00;;
7171;SDS011;3627;46.544;14.944;2024-01-10T03:57:05;2.00;;;1.90;;
7171;SDS011;3627;46.544;14.944;2024-01-10T03:59:32;1.90;;;1.80;;
7171;SDS011;3627;46.544;14.944;2024-01-10T04:01:59;2.00;;;1.90;;
7171;SDS011;3627;46.544;14.944;2024-01-10T04:04:25;1.90;;;1.80;;
7171;SDS011;3627;46.544;14.944;2024-01-10T04:06:51;1.90;;;1.80;;
7171;SDS011;3627;46.544;14.944;2024-01-10T04:09:19;1.90;;;1.80;;
7171;SDS011;3627;46.544;14.944;2024-01-10T04:11:46;1.90;;;1.80;;
7171;SDS011;3627;46.544;14.944;2024-01-10T04:14:12;1.90;;;1.80;;
7171;SDS011;3627;46.544;14.944;2024-01-10T04:16:38;1.90;;;1.80;;
7171;SDS011;3627;46.544;14.944;2024-01-10T04:19:05;1.90;;;1.80;;
7171;SDS011;3627;46.544;14.944;2024-01-10T04:21:31;2.00;;;1.90;;
7171;SDS011;3627;46.544;14.944;2024-01-10T04:23:57;2.00;;;1.90;;
7171;SDS011;3627;46.544;14.944;2024-01-10T04:26:25;1.90;;;1.80;;
7171;SDS011;3627;46.544;14.944;2024-01-10T04:28:51;1.97;;;1.87;;
7171;SDS011;3627;46.544;14.944;2024-01-10T04:31:18;1.90;;;1.80;;
7171;SDS011;3627;46.544;14.944;2024-01-10T04:33:44;1.90;;;1.80;;
7171;SDS011;3627;46.544;14.944;2024-01-10T04:36:10;1.90;;;1.80;;
7171;SDS011;3627;46.544;14.944;2024-01-10T04:38:37;1.90;;;1.80;;
7171;SDS011;3627;46.544;14.944;2024-01-10T04:41:03;1.90;;;1.80;;
7171;SDS011;3627;46.544;14.944;2024-01-10T04:43:31;1.90;;;1.80;;
7171;SDS011;3627;46.544;14.944;2024-01-10T04:45:57;1.90;;;1.80;;
7171;SDS011;3627;46.544;14.944;2024-01-10T04:48:24;1.90;;;1.80;;
7171;SDS011;3627;46.544;14.944;2024-01-10T04:50:50;2.00;;;1.90;;
7171;SDS011;3627;46.544;14.944;2024-01-10T04:53:16;1.90;;;1.80;;
7171;SDS011;3627;46.544;14.944;2024-01-10T04:55:43;1.90;;;1.80;;
7171;SDS011;3627;46.544;14.944;2024-01-10T04:58:10;1.97;;;1.87;;
7171;SDS011;3627;46.544;14.944;2024-01-10T05:00:37;2.00;;;1.90;;
7171;SDS011;3627;46.544;14.944;2024-01-10T05:03:04;2.10;;;2.00;;
7171;SDS011;3627;46.544;14.944;2024-01-10T05:05:31;2.00;;;1.90;;
7171;SDS011;3627;46.544;14.944;2024-01-10T05:07:58;1.90;;;1.80;;
7171;SDS011;3627;46.544;14.944;2024-01-10T05:10:24;2.00;;;1.90;;
7171;SDS011;3627;46.544;14.944;2024-01-10T05:12:50;2.00;;;1.90;;
7171;SDS011;3627;46.544;14.944;2024-01-10T05:15:17;2.00;;;1.90;;
7171;SDS011;3627;46.544;14.944;2024-01-10T05:17:45;2.00;;;1.90;;
7171;SDS011;3627;46.544;14.944;2024-01-10T05:20:12;2.10;;;2.00;;
7171;SDS011;3627;46.544;14.944;2024-01-10T05:22:39;2.10;;;2.00;;
7171;SDS011;3627;46.544;14.944;2024-01-10T05:25:06;2.00;;;1.90;;
7171;SDS011;3627;46.544;14.944;2024-01-10T05:27:33;2.00;;;1.90;;
7171;SDS011;3627;46.544;14.944;2024-01-10T05:29:59;2.00;;;1.90;;
7171;SDS011;3627;46.544;14.944;2024-01-10T05:32:25;1.90;;;1.80;;
7171;SDS011;3627;46.544;14.944;2024-01-10T05:34:53;2.00;;;1.90;;
7171;SDS011;3627;46.544;14.944;2024-01-10T05:37:20;2.07;;;1.97;;
7171;SDS011;3627;46.544;14.944;2024-01-10T05:39:47;1.90;;;1.80;;
7171;SDS011;3627;46.544;14.944;2024-01-10T05:42:13;2.00;;;1.90;;
7171;SDS011;3627;46.544;14.944;2024-01-10T05:44:40;1.90;;;1.80;;
7171;SDS011;3627;46.544;14.944;2024-01-10T05:47:06;2.00;;;1.90;;
7171;SDS011;3627;46.544;14.944;2024-01-10T05:49:33;1.90;;;1.80;;
7171;SDS011;3627;46.544;14.944;2024-01-10T05:52:00;2.00;;;1.90;;
7171;SDS011;3627;46.544;14.944;2024-01-10T05:54:27;2.10;;;2.00;;
7171;SDS011;3627;46.544;14.944;2024-01-10T05:56:53;2.00;;;1.90;;
7171;SDS011;3627;46.544;14.944;2024-01-10T05:59:20;2.00;;;1.90;;
7171;SDS011;3627;46.544;14.944;2024-01-10T06:01:46;2.03;;;1.93;;
7171;SDS011;3627;46.544;14.944;2024-01-10T06:04:12;2.00;;;1.90;;
7171;SDS011;3627;46.544;14.944;2024-01-10T06:06:39;2.00;;;1.90;;
7171;SDS011;3627;46.544;14.944;2024-01-10T06:09:06;2.00;;;1.90;;
7171;SDS011;3627;46.544;14.944;2024-01-10T06:11:40;2.00;;;1.90;;
7171;SDS011;3627;46.544;14.944;2024-01-10T06:14:06;1.90;;;1.80;;
7171;SDS011;3627;46.544;14.944;2024-01-10T06:16:32;2.00;;;1.90;;
7171;SDS011;3627;46.544;14.944;2024-01-10T06:18:59;1.90;;;1.80;;
7171;SDS011;3627;46.544;14.944;2024-01-10T06:21:25;2.00;;;1.90;;
7171;SDS011;3627;46.544;14.944;2024-01-10T06:23:51;1.97;;;1.87;;
7171;SDS011;3627;46.544;14.944;2024-01-10T06:26:19;2.00;;;1.90;;
7171;SDS011;3627;46.544;14.944;2024-01-10T06:28:47;2.10;;;2.00;;
7171;SDS011;3627;46.544;14.944;2024-01-10T06:31:13;1.90;;;1.80;;
7171;SDS011;3627;46.544;14.944;2024-01-10T06:33:40;2.00;;;1.90;;
7171;SDS011;3627;46.544;14.944;2024-01-10T06:36:06;1.90;;;1.80;;
7171;SDS011;3627;46.544;14.944;2024-01-10T06:38:33;2.00;;;1.90;;
7171;SDS011;3627;46.544;14.944;2024-01-10T06:40:59;2.00;;;1.90;;
7171;SDS011;3627;46.544;14.944;2024-01-10T06:43:27;2.00;;;1.90;;
7171;SDS011;3627;46.544;14.944;2024-01-10T06:45:53;2.00;;;1.90;;
7171;SDS011;3627;46.544;14.944;2024-01-10T06:48:19;2.00;;;1.90;;
7171;SDS011;3627;46.544;14.944;2024-01-10T06:50:46;2.00;;;1.90;;
7171;SDS011;3627;46.544;14.944;2024-01-10T06:53:12;2.13;;;2.03;;
7171;SDS011;3627;46.544;14.944;2024-01-10T06:55:39;2.00;;;1.90;;
7171;SDS011;3627;46.544;14.944;2024-01-10T06:58:05;2.00;;;1.90;;
7171;SDS011;3627;46.544;14.944;2024-01-10T07:00:33;2.00;;;1.90;;
7171;SDS011;3627;46.544;14.944;2024-01-10T07:03:00;2.00;;;1.90;;
7171;SDS011;3627;46.544;14.944;2024-01-10T07:05:27;2.00;;;1.90;;
7171;SDS011;3627;46.544;14.944;2024-01-10T07:07:54;1.90;;;1.80;;
7171;SDS011;3627;46.544;14.944;2024-01-10T07:10:20;2.10;;;2.00;;
7171;SDS011;3627;46.544;14.944;2024-01-10T07:12:49;1.90;;;1.80;;
7171;SDS011;3627;46.544;14.944;2024-01-10T07:15:16;2.00;;;1.90;;
7171;SDS011;3627;46.544;14.944;2024-01-10T07:17:44;2.00;;;1.90;;
7171;SDS011;3627;46.544;14.944;2024-01-10T07:20:10;2.00;;;1.90;;
7171;SDS011;3627;46.544;14.944;2024-01-10T07:22:37;2.00;;;1.90;;
7171;SDS011;3627;46.544;14.944;2024-01-10T07:25:06;2.03;;;1.93;;
7171;SDS011;3627;46.544;14.944;2024-01-10T07:27:33;1.90;;;1.80;;
7171;SDS011;3627;46.544;14.944;2024-01-10T07:29:59;1.90;;;1.80;;
7171;SDS011;3627;46.544;14.944;2024-01-10T07:32:26;2.10;;;2.00;;
7171;SDS011;3627;46.544;14.944;2024-01-10T07:34:53;2.10;;;2.00;;
7171;SDS011;3627;46.544;14.944;2024-01-10T07:37:20;1.90;;;1.80;;
7171;SDS011;3627;46.544;14.944;2024-01-10T07:39:47;2.00;;;1.90;;
7171;SDS011;3627;46.544;14.944;2024-01-10T07:42:15;1.90;;;1.80;;
7171;SDS011;3627;46.544;14.944;2024-01-10T07:44:43;1.90;;;1.80;;
7171;SDS011;3627;46.544;14.944;2024-01-10T07:47:09;1.90;;;1.80;;
7171;SDS011;3627;46.544;14.944;2024-01-10T07:49:36;2.00;;;1.90;;
7171;SDS011;3627;46.544;14.944;2024-01-10T07:52:04;1.90;;;1.80;;
7171;SDS011;3627;46.544;14.944;2024-01-10T07:54:30;2.00;;;1.90;;
7171;SDS011;3627;46.544;14.944;2024-01-10T07:56:57;2.00;;;1.90;;
7171;SDS011;3627;46.544;14.944;2024-01-10T07:59:23;1.90;;;1.80;;
7171;SDS011;3627;46.544;14.944;2024-01-10T08:01:56;1.90;;;1.80;;
7171;SDS011;3627;46.544;14.944;2024-01-10T08:04:23;1.90;;;1.80;;
7171;SDS011;3627;46.544;14.944;2024-01-10T08:06:50;2.00;;;1.90;;
7171;SDS011;3627;46.544;14.944;2024-01-10T08:09:17;2.07;;;1.97;;
7171;SDS011;3627;46.544;14.944;2024-01-10T08:11:45;1.87;;;1.77;;
7171;SDS011;3627;46.544;14.944;2024-01-10T08:14:11;1.90;;;1.80;;
7171;SDS011;3627;46.544;14.944;2024-01-10T08:16:37;1.80;;;1.70;;
7171;SDS011;3627;46.544;14.944;2024-01-10T08:19:04;1.50;;;1.50;;
7171;SDS011;3627;46.544;14.944;2024-01-10T08:21:30;1.50;;;1.50;;
7171;SDS011;3627;46.544;14.944;2024-01-10T08:23:57;1.50;;;1.50;;
7171;SDS011;3627;46.544;14.944;2024-01-10T08:26:24;1.50;;;1.50;;
7171;SDS011;3627;46.544;14.944;2024-01-10T08:28:51;1.55;;;1.55;;
7171;SDS011;3627;46.544;14.944;2024-01-10T08:31:17;1.40;;;1.40;;
7171;SDS011;3627;46.544;14.944;2024-01-10T08:33:44;1.30;;;1.30;;
7171;SDS011;3627;46.544;14.944;2024-01-10T08:36:10;1.38;;;1.38;;
7171;SDS011;3627;46.544;14.944;2024-01-10T08:38:37;1.20;;;1.20;;
7171;SDS011;3627;46.544;14.944;2024-01-10T08:41:04;1.25;;;1.25;;
7171;SDS011;3627;46.544;14.944;2024-01-10T08:43:31;1.20;;;1.20;;
7171;SDS011;3627;46.544;14.944;2024-01-10T08:45:58;1.23;;;1.23;;
7171;SDS011;3627;46.544;14.944;2024-01-10T08:48:24;1.20;;;1.20;;
7171;SDS011;3627;46.544;14.944;2024-01-10T08:50:51;1.20;;;1.20;;
7171;SDS011;3627;46.544;14.944;2024-01-10T08:53:19;1.38;;;1.38;;
7171;SDS011;3627;46.544;14.944;2024-01-10T08:55:45;1.10;;;1.10;;
7171;SDS011;3627;46.544;14.944;2024-01-10T08:58:12;1.27;;;1.27;;
7171;SDS011;3627;46.544;14.944;2024-01-10T09:00:40;1.20;;;1.20;;
7171;SDS011;3627;46.544;14.944;2024-01-10T09:03:06;1.40;;;1.40;;
7171;SDS011;3627;46.544;14.944;2024-01-10T09:05:34;1.35;;;1.35;;
7171;SDS011;3627;46.544;14.944;2024-01-10T09:08:00;1.10;;;1.10;;
7171;SDS011;3627;46.544;14.944;2024-01-10T09:10:28;1.20;;;1.20;;
7171;SDS011;3627;46.544;14.944;2024-01-10T09:12:54;1.00;;;1.00;;
7171;SDS011;3627;46.544;14.944;2024-01-10T09:15:20;1.00;;;1.00;;
7171;SDS011;3627;46.544;14.944;2024-01-10T09:17:48;1.00;;;1.00;;
7171;SDS011;3627;46.544;14.944;2024-01-10T09:20:15;1.00;;;1.00;;
7171;SDS011;3627;46.544;14.944;2024-01-10T09:22:41;0.90;;;0.90;;
7171;SDS011;3627;46.544;14.944;2024-01-10T09:25:08;0.90;;;0.90;;
7171;SDS011;3627;46.544;14.944;2024-01-10T09:27:34;0.85;;;0.85;;
7171;SDS011;3627;46.544;14.944;2024-01-10T09:30:01;0.90;;;0.90;;
7171;SDS011;3627;46.544;14.944;2024-01-10T09:32:28;0.90;;;0.90;;
7171;SDS011;3627;46.544;14.944;2024-01-10T09:34:56;0.90;;;0.90;;
7171;SDS011;3627;46.544;14.944;2024-01-10T09:37:23;1.10;;;1.10;;
7171;SDS011;3627;46.544;14.944;2024-01-10T09:39:49;1.00;;;1.00;;
7171;SDS011;3627;46.544;14.944;2024-01-10T09:42:16;0.90;;;0.90;;
7171;SDS011;3627;46.544;14.944;2024-01-10T09:44:42;0.90;;;0.90;;
7171;SDS011;3627;46.544;14.944;2024-01-10T09:47:08;0.90;;;0.90;;
7171;SDS011;3627;46.544;14.944;2024-01-10T09:49:35;0.73;;;0.73;;
7171;SDS011;3627;46.544;14.944;2024-01-10T09:52:03;0.70;;;0.70;;
7171;SDS011;3627;46.544;14.944;2024-01-10T09:54:30;0.80;;;0.80;;
7171;SDS011;3627;46.544;14.944;2024-01-10T09:56:57;0.82;;;0.82;;
7171;SDS011;3627;46.544;14.944;2024-01-10T09:59:24;0.70;;;0.70;;
7171;SDS011;3627;46.544;14.944;2024-01-10T10:01:50;0.60;;;0.60;;
7171;SDS011;3627;46.544;14.944;2024-01-10T10:04:17;0.75;;;0.75;;
7171;SDS011;3627;46.544;14.944;2024-01-10T10:06:45;0.70;;;0.70;;
7171;SDS011;3627;46.544;14.944;2024-01-10T10:09:13;0.70;;;0.70;;
7171;SDS011;3627;46.544;14.944;2024-01-10T10:11:40;0.60;;;0.60;;
7171;SDS011;3627;46.544;14.944;2024-01-10T10:14:16;0.50;;;0.50;;
7171;SDS011;3627;46.544;14.944;2024-01-10T10:16:43;0.75;;;0.75;;
7171;SDS011;3627;46.544;14.944;2024-01-10T10:19:09;0.75;;;0.75;;
7171;SDS011;3627;46.544;14.944;2024-01-10T10:21:36;0.60;;;0.60;;
7171;SDS011;3627;46.544;14.944;2024-01-10T10:24:04;0.90;;;0.90;;
7171;SDS011;3627;46.544;14.944;2024-01-10T10:26:33;0.68;;;0.68;;
7171;SDS011;3627;46.544;14.944;2024-01-10T10:29:00;0.70;;;0.70;;
7171;SDS011;3627;46.544;14.944;2024-01-10T10:31:26;0.80;;;0.80;;
7171;SDS011;3627;46.544;14.944;2024-01-10T10:33:54;0.70;;;0.70;;
7171;SDS011;3627;46.544;14.944;2024-01-10T10:36:20;0.55;;;0.55;;
7171;SDS011;3627;46.544;14.944;2024-01-10T10:38:46;0.60;;;0.60;;
7171;SDS011;3627;46.544;14.944;2024-01-10T10:41:13;0.60;;;0.60;;
7171;SDS011;3627;46.544;14.944;2024-01-10T10:43:41;0.70;;;0.70;;
7171;SDS011;3627;46.544;14.944;2024-01-10T10:46:08;0.70;;;0.70;;
7171;SDS011;3627;46.544;14.944;2024-01-10T10:48:37;0.70;;;0.70;;
7171;SDS011;3627;46.544;14.944;2024-01-10T10:51:04;0.90;;;0.90;;
7171;SDS011;3627;46.544;14.944;2024-01-10T10:53:32;0.90;;;0.90;;
7171;SDS011;3627;46.544;14.944;2024-01-10T10:55:59;1.00;;;1.00;;
7171;SDS011;3627;46.544;14.944;2024-01-10T10:58:26;1.00;;;1.00;;
7171;SDS011;3627;46.544;14.944;2024-01-10T11:00:54;1.15;;;1.15;;
7171;SDS011;3627;46.544;14.944;2024-01-10T11:03:21;1.20;;;1.20;;
7171;SDS011;3627;46.544;14.944;2024-01-10T11:05:49;1.20;;;1.20;;
7171;SDS011;3627;46.544;14.944;2024-01-10T11:08:16;1.20;;;1.20;;
7171;SDS011;3627;46.544;14.944;2024-01-10T11:10:43;1.30;;;1.30;;
7171;SDS011;3627;46.544;14.944;2024-01-10T11:13:16;1.25;;;1.25;;
7171;SDS011;3627;46.544;14.944;2024-01-10T11:15:58;1.40;;;1.40;;
7171;SDS011;3627;46.544;14.944;2024-01-10T11:18:38;1.33;;;1.33;;
7171;SDS011;3627;46.544;14.944;2024-01-10T11:21:14;1.40;;;1.40;;
7171;SDS011;3627;46.544;14.944;2024-01-10T11:23:45;1.60;;;1.60;;
7171;SDS011;3627;46.544;14.944;2024-01-10T11:26:13;1.30;;;1.30;;
7171;SDS011;3627;46.544;14.944;2024-01-10T11:28:40;1.50;;;1.50;;
7171;SDS011;3627;46.544;14.944;2024-01-10T11:31:08;1.30;;;1.30;;
7171;SDS011;3627;46.544;14.944;2024-01-10T11:33:35;1.27;;;1.27;;
7171;SDS011;3627;46.544;14.944;2024-01-10T11:38:50;1.50;;;1.50;;
7171;SDS011;3627;46.544;14.944;2024-01-10T11:41:20;1.40;;;1.40;;
7171;SDS011;3627;46.544;14.944;2024-01-10T11:46:30;1.42;;;1.42;;
7171;SDS011;3627;46.544;14.944;2024-01-10T11:48:56;1.52;;;1.52;;
7171;SDS011;3627;46.544;14.944;2024-01-10T11:51:22;1.40;;;1.40;;
7171;SDS011;3627;46.544;14.944;2024-01-10T11:53:49;1.40;;;1.40;;
7171;SDS011;3627;46.544;14.944;2024-01-10T11:56:18;1.60;;;1.60;;
7171;SDS011;3627;46.544;14.944;2024-01-10T11:58:54;1.42;;;1.42;;
7171;SDS011;3627;46.544;14.944;2024-01-10T12:01:21;1.42;;;1.42;;
7171;SDS011;3627;46.544;14.944;2024-01-10T12:03:49;1.50;;;1.50;;
7171;SDS011;3627;46.544;14.944;2024-01-10T12:06:16;1.40;;;1.40;;
7171;SDS011;3627;46.544;14.944;2024-01-10T12:08:43;1.40;;;1.40;;
7171;SDS011;3627;46.544;14.944;2024-01-10T12:11:09;1.60;;;1.60;;
7171;SDS011;3627;46.544;14.944;2024-01-10T12:13:35;1.40;;;1.40;;
7171;SDS011;3627;46.544;14.944;2024-01-10T12:16:02;1.50;;;1.50;;
7171;SDS011;3627;46.544;14.944;2024-01-10T12:18:28;1.50;;;1.50;;
7171;SDS011;3627;46.544;14.944;2024-01-10T12:20:56;1.40;;;1.40;;
7171;SDS011;3627;46.544;14.944;2024-01-10T12:23:22;1.50;;;1.50;;
7171;SDS011;3627;46.544;14.944;2024-01-10T12:25:48;1.50;;;1.50;;
7171;SDS011;3627;46.544;14.944;2024-01-10T12:28:15;1.50;;;1.50;;
7171;SDS011;3627;46.544;14.944;2024-01-10T12:30:42;1.50;;;1.50;;
7171;SDS011;3627;46.544;14.944;2024-01-10T12:33:09;1.42;;;1.42;;
7171;SDS011;3627;46.544;14.944;2024-01-10T12:35:35;1.42;;;1.42;;
7171;SDS011;3627;46.544;14.944;2024-01-10T12:38:04;1.50;;;1.50;;
7171;SDS011;3627;46.544;14.944;2024-01-10T12:40:31;1.60;;;1.60;;
7171;SDS011;3627;46.544;14.944;2024-01-10T12:43:01;1.40;;;1.40;;
7171;SDS011;3627;46.544;14.944;2024-01-10T12:45:28;1.45;;;1.45;;
7171;SDS011;3627;46.544;14.944;2024-01-10T12:47:54;1.50;;;1.50;;
7171;SDS011;3627;46.544;14.944;2024-01-10T12:50:20;1.50;;;1.50;;
7171;SDS011;3627;46.544;14.944;2024-01-10T12:52:47;1.60;;;1.60;;
7171;SDS011;3627;46.544;14.944;2024-01-10T12:55:15;1.50;;;1.50;;
7171;SDS011;3627;46.544;14.944;2024-01-10T12:57:42;1.48;;;1.48;;
7171;SDS011;3627;46.544;14.944;2024-01-10T13:00:09;1.50;;;1.50;;
7171;SDS011;3627;46.544;14.944;2024-01-10T13:02:36;1.50;;;1.50;;
7171;SDS011;3627;46.544;14.944;2024-01-10T13:05:03;1.50;;;1.50;;
7171;SDS011;3627;46.544;14.944;2024-01-10T13:07:30;1.50;;;1.50;;
7171;SDS011;3627;46.544;14.944;2024-01-10T13:09:56;1.40;;;1.40;;
7171;SDS011;3627;46.544;14.944;2024-01-10T13:12:24;1.50;;;1.50;;
7171;SDS011;3627;46.544;14.944;2024-01-10T13:14:50;1.40;;;1.40;;
7171;SDS011;3627;46.544;14.944;2024-01-10T13:17:18;1.60;;;1.60;;
7171;SDS011;3627;46.544;14.944;2024-01-10T13:19:44;1.70;;;1.70;;
7171;SDS011;3627;46.544;14.944;2024-01-10T13:22:13;1.63;;;1.63;;
7171;SDS011;3627;46.544;14.944;2024-01-10T13:24:41;1.55;;;1.55;;
7171;SDS011;3627;46.544;14.944;2024-01-10T13:27:08;1.50;;;1.50;;
7171;SDS011;3627;46.544;14.944;2024-01-10T13:29:37;1.60;;;1.60;;
7171;SDS011;3627;46.544;14.944;2024-01-10T13:32:03;1.50;;;1.50;;
7171;SDS011;3627;46.544;14.944;2024-01-10T13:34:30;1.50;;;1.50;;
7171;SDS011;3627;46.544;14.944;2024-01-10T13:36:56;1.58;;;1.58;;
7171;SDS011;3627;46.544;14.944;2024-01-10T13:39:22;1.40;;;1.40;;
7171;SDS011;3627;46.544;14.944;2024-01-10T13:41:49;1.58;;;1.58;;
7171;SDS011;3627;46.544;14.944;2024-01-10T13:44:15;1.60;;;1.60;;
7171;SDS011;3627;46.544;14.944;2024-01-10T13:46:43;1.52;;;1.52;;
7171;SDS011;3627;46.544;14.944;2024-01-10T13:49:10;1.50;;;1.50;;
7171;SDS011;3627;46.544;14.944;2024-01-10T13:51:36;1.58;;;1.58;;
7171;SDS011;3627;46.544;14.944;2024-01-10T13:54:03;1.60;;;1.60;;
7171;SDS011;3627;46.544;14.944;2024-01-10T13:56:29;1.40;;;1.40;;
7171;SDS011;3627;46.544;14.944;2024-01-10T13:58:57;1.50;;;1.50;;
7171;SDS011;3627;46.544;14.944;2024-01-10T14:01:23;1.50;;;1.50;;
7171;SDS011;3627;46.544;14.944;2024-01-10T14:03:52;1.53;;;1.53;;
7171;SDS011;3627;46.544;14.944;2024-01-10T14:06:19;1.50;;;1.50;;
7171;SDS011;3627;46.544;14.944;2024-01-10T14:08:45;1.50;;;1.50;;
7171;SDS011;3627;46.544;14.944;2024-01-10T14:11:13;1.70;;;1.70;;
7171;SDS011;3627;46.544;14.944;2024-01-10T14:13:40;1.67;;;1.67;;
7171;SDS011;3627;46.544;14.944;2024-01-10T14:16:06;1.77;;;1.77;;
7171;SDS011;3627;46.544;14.944;2024-01-10T14:18:32;1.50;;;1.50;;
7171;SDS011;3627;46.544;14.944;2024-01-10T14:21:00;1.57;;;1.57;;
7171;SDS011;3627;46.544;14.944;2024-01-10T14:23:27;1.70;;;1.70;;
7171;SDS011;3627;46.544;14.944;2024-01-10T14:25:54;1.77;;;1.77;;
7171;SDS011;3627;46.544;14.944;2024-01-10T14:28:20;1.60;;;1.60;;
7171;SDS011;3627;46.544;14.944;2024-01-10T14:30:47;1.70;;;1.70;;
7171;SDS011;3627;46.544;14.944;2024-01-10T14:33:13;1.70;;;1.70;;
7171;SDS011;3627;46.544;14.944;2024-01-10T14:35:40;1.60;;;1.60;;
7171;SDS011;3627;46.544;14.944;2024-01-10T14:38:07;1.60;;;1.60;;
7171;SDS011;3627;46.544;14.944;2024-01-10T14:40:34;1.60;;;1.60;;
7171;SDS011;3627;46.544;14.944;2024-01-10T14:43:01;1.60;;;1.60;;
7171;SDS011;3627;46.544;14.944;2024-01-10T14:45:27;1.50;;;1.50;;
7171;SDS011;3627;46.544;14.944;2024-01-10T14:47:54;1.70;;;1.70;;
7171;SDS011;3627;46.544;14.944;2024-01-10T14:50:20;1.60;;;1.60;;
7171;SDS011;3627;46.544;14.944;2024-01-10T14:52:48;1.70;;;1.70;;
7171;SDS011;3627;46.544;14.944;2024-01-10T14:55:17;1.60;;;1.60;;
7171;SDS011;3627;46.544;14.944;2024-01-10T14:57:43;1.60;;;1.60;;
7171;SDS011;3627;46.544;14.944;2024-01-10T15:00:10;1.70;;;1.70;;
7171;SDS011;3627;46.544;14.944;2024-01-10T15:02:36;1.57;;;1.57;;
7171;SDS011;3627;46.544;14.944;2024-01-10T15:05:03;1.63;;;1.63;;